Time;durP1;ratioP1;P1;durP2;ratioP2;P2;SDS_P1;SDS_P2;PMS_P1;PMS_P2;Temp;Humidity;BMP_temperature;BMP_pressure;BME280_temperature;BME280_humidity;BME280_pressure;Samples;Min_cycle;Max_cycle;Signal;HPM_P1;HPM_P2
2023/10/20 00:00:54;;;;;;;12.20;1.92;;;37.30;26.10;;;;;;5043481;28;20033;-69
2023/10/20 00:03:21;;;;;;;3.40;1.35;;;37.30;25.40;;;;;;5055410;28;20013;-66
2023/10/20 00:05:47;;;;;;;10.30;1.60;;;37.20;26.30;;;;;;5031836;28;20021;-67
2023/10/20 00:08:14;;;;;;;12.57;1.80;;;37.10;26.80;;;;;;5030329;28;20029;-68
2023/10/20 00:10:41;;;;;;;15.18;1.83;;;37.10;26.30;;;;;;5029268;28;20027;-68
2023/10/20 00:13:08;;;;;;;9.52;1.67;;;37.00;26.10;;;;;;5017140;28;20431;-66
2023/10/20 00:15:35;;;;;;;12.63;1.60;;;36.90;26.50;;;;;;5026272;28;20029;-70
2023/10/20 00:18:02;;;;;;;8.52;1.75;;;36.90;26.90;;;;;;5029352;28;20014;-67
2023/10/20 00:20:29;;;;;;;9.75;2.65;;;36.80;27.30;;;;;;5031627;28;20021;-68
2023/10/20 00:22:56;;;;;;;9.32;2.22;;;36.70;27.20;;;;;;5033255;28;20010;-67
2023/10/20 00:25:22;;;;;;;14.57;2.10;;;36.60;27.20;;;;;;5030153;28;20499;-68
2023/10/20 00:27:49;;;;;;;13.73;1.88;;;36.50;27.40;;;;;;5026551;28;20048;-67
2023/10/20 00:30:15;;;;;;;7.95;1.77;;;36.40;27.80;;;;;;5034474;28;20024;-68
2023/10/20 00:32:43;;;;;;;8.70;1.95;;;36.30;27.80;;;;;;5030042;28;20124;-66
2023/10/20 00:35:13;;;;;;;16.73;2.47;;;36.20;28.00;;;;;;5032568;28;20365;-67
2023/10/20 00:37:40;;;;;;;10.23;2.10;;;36.20;28.00;;;;;;5028472;28;20028;-68
2023/10/20 00:40:12;;;;;;;10.77;2.33;;;36.10;28.10;;;;;;5024363;28;20102;-68
2023/10/20 00:42:39;;;;;;;15.38;2.55;;;35.90;28.30;;;;;;5021187;28;20468;-65
2023/10/20 00:45:08;;;;;;;21.10;2.70;;;35.90;28.70;;;;;;5026172;28;20025;-66
2023/10/20 00:47:36;;;;;;;18.88;2.45;;;35.70;28.80;;;;;;5023515;28;20029;-65
2023/10/20 00:50:06;;;;;;;22.92;2.90;;;35.60;28.90;;;;;;5023558;28;20435;-65
2023/10/20 00:52:35;;;;;;;24.38;3.05;;;35.50;28.80;;;;;;5024228;28;20029;-67
2023/10/20 00:55:03;;;;;;;25.00;3.85;;;35.30;28.90;;;;;;5020149;28;20009;-68
2023/10/20 00:57:30;;;;;;;20.00;3.25;;;35.20;29.10;;;;;;5027296;28;20025;-65
2023/10/20 00:59:57;;;;;;;22.70;2.80;;;35.10;29.20;;;;;;5029308;28;20448;-65
2023/10/20 01:02:24;;;;;;;22.83;3.33;;;35.00;29.70;;;;;;5033997;28;20247;-66
2023/10/20 01:04:51;;;;;;;35.65;3.25;;;34.80;30.00;;;;;;5038873;28;20433;-67
2023/10/20 01:07:20;;;;;;;24.73;3.78;;;34.70;31.40;;;;;;5027096;28;20369;-67
2023/10/20 01:09:47;;;;;;;35.50;4.22;;;34.50;31.40;;;;;;5028866;28;20046;-66
2023/10/20 01:12:13;;;;;;;15.55;3.63;;;34.30;31.90;;;;;;5026454;28;20021;-65
2023/10/20 01:14:42;;;;;;;30.13;5.28;;;34.20;32.40;;;;;;5026912;28;20040;-64
2023/10/20 01:17:10;;;;;;;43.88;4.97;;;34.10;32.70;;;;;;5041182;28;20137;-67
2023/10/20 01:19:37;;;;;;;37.22;6.00;;;33.90;33.00;;;;;;5030550;28;20017;-66
2023/10/20 01:22:14;;;;;;;40.40;5.50;;;33.80;33.40;;;;;;5029330;28;20014;-65
2023/10/20 01:24:40;;;;;;;24.67;5.10;;;33.60;33.50;;;;;;5030756;28;20567;-68
2023/10/20 01:27:07;;;;;;;41.60;4.88;;;33.50;33.60;;;;;;5031267;28;20048;-66
2023/10/20 01:29:35;;;;;;;48.13;5.65;;;33.40;34.00;;;;;;5039957;28;20051;-67
2023/10/20 01:32:03;;;;;;;33.33;5.00;;;33.30;34.10;;;;;;5040107;28;20495;-66
2023/10/20 01:34:31;;;;;;;36.97;4.43;;;33.20;34.40;;;;;;5036460;28;20081;-67
2023/10/20 01:37:18;;;;;;;26.80;4.60;;;33.00;34.50;;;;;;5041435;28;20052;-64
2023/10/20 01:39:47;;;;;;;23.42;4.57;;;32.90;34.70;;;;;;5037701;28;20052;-65
2023/10/20 01:42:14;;;;;;;26.50;5.50;;;32.80;34.70;;;;;;5034572;28;20499;-65
2023/10/20 01:44:41;;;;;;;38.72;5.13;;;32.70;35.10;;;;;;5030566;28;20060;-66
2023/10/20 01:47:11;;;;;;;35.40;5.25;;;32.60;35.30;;;;;;5029292;28;20048;-66
2023/10/20 01:49:40;;;;;;;35.05;4.97;;;32.50;35.50;;;;;;5036592;28;20135;-65
2023/10/20 01:52:07;;;;;;;37.92;5.60;;;32.50;35.70;;;;;;5030842;28;20437;-65
2023/10/20 01:54:34;;;;;;;39.72;5.07;;;32.40;35.90;;;;;;5028778;28;20052;-63
2023/10/20 01:57:03;;;;;;;48.38;5.30;;;32.30;35.80;;;;;;5050328;28;20055;-69
2023/10/20 01:59:30;;;;;;;35.47;5.43;;;32.20;35.80;;;;;;5042694;28;20051;-65
2023/10/20 02:01:56;;;;;;;44.08;4.70;;;32.10;35.80;;;;;;5032260;28;20065;-65
2023/10/20 02:04:23;;;;;;;43.78;5.40;;;32.00;35.50;;;;;;5030684;28;20384;-65
2023/10/20 02:06:50;;;;;;;51.92;5.82;;;31.90;35.40;;;;;;5030416;28;20071;-65
2023/10/20 02:09:25;;;;;;;43.83;5.70;;;31.90;35.40;;;;;;5028623;28;20062;-65
2023/10/20 02:11:58;;;;;;;44.53;5.90;;;31.80;35.70;;;;;;5033635;28;20058;-63
2023/10/20 02:14:25;;;;;;;52.03;7.72;;;31.70;35.90;;;;;;5030461;28;20805;-65
2023/10/20 02:16:52;;;;;;;50.17;6.22;;;31.70;36.00;;;;;;5036075;28;20093;-64
2023/10/20 02:19:18;;;;;;;61.10;6.93;;;31.60;36.30;;;;;;5032256;28;20064;-64
2023/10/20 02:21:52;;;;;;;54.08;7.35;;;31.50;36.40;;;;;;5031205;28;20093;-66
2023/10/20 02:24:21;;;;;;;54.40;7.43;;;31.50;36.50;;;;;;5029254;28;20108;-65
2023/10/20 02:26:48;;;;;;;47.95;6.97;;;31.40;36.60;;;;;;5031671;28;20044;-65
2023/10/20 02:29:15;;;;;;;62.00;9.10;;;31.30;36.80;;;;;;5030530;28;20589;-64
2023/10/20 02:31:41;;;;;;;56.53;8.48;;;31.30;37.20;;;;;;5040014;28;20095;-65
2023/10/20 02:34:08;;;;;;;61.88;9.40;;;31.20;37.70;;;;;;5028586;28;20396;-64
2023/10/20 02:36:34;;;;;;;53.00;8.52;;;31.10;37.60;;;;;;5029444;28;20162;-65
2023/10/20 02:39:01;;;;;;;61.13;9.20;;;31.00;37.90;;;;;;5030111;28;20055;-65
2023/10/20 02:41:30;;;;;;;64.28;9.57;;;31.00;38.10;;;;;;5037534;28;20064;-65
2023/10/20 02:43:57;;;;;;;59.17;9.65;;;30.90;38.60;;;;;;5038097;28;20055;-65
2023/10/20 02:46:23;;;;;;;62.25;10.65;;;30.80;38.70;;;;;;5042704;28;20058;-65
2023/10/20 02:48:50;;;;;;;66.50;10.77;;;30.70;38.60;;;;;;5043199;28;20054;-65
2023/10/20 02:51:17;;;;;;;68.82;11.18;;;30.70;38.70;;;;;;5037593;28;20058;-64
2023/10/20 02:53:44;;;;;;;74.78;11.60;;;30.60;38.90;;;;;;5035272;28;20069;-66
2023/10/20 02:56:15;;;;;;;85.53;12.30;;;30.60;38.30;;;;;;5032859;28;20168;-66
2023/10/20 02:58:44;;;;;;;88.68;14.02;;;30.50;38.40;;;;;;5040846;28;20068;-65
2023/10/20 03:01:16;;;;;;;90.07;12.38;;;30.50;38.80;;;;;;5039984;28;20074;-65
2023/10/20 03:03:43;;;;;;;65.60;12.10;;;30.40;38.70;;;;;;5037896;28;20063;-64
2023/10/20 03:06:11;;;;;;;77.88;12.68;;;30.40;39.50;;;;;;5032107;28;20189;-65
2023/10/20 03:08:38;;;;;;;91.65;14.63;;;30.30;39.10;;;;;;5040922;28;20056;-64
2023/10/20 03:11:06;;;;;;;72.50;14.70;;;30.30;39.40;;;;;;5034272;28;20559;-65
2023/10/20 03:13:33;;;;;;;99.22;14.07;;;30.20;39.30;;;;;;5030232;28;20526;-65
2023/10/20 03:15:59;;;;;;;67.38;12.40;;;30.20;39.20;;;;;;5038675;28;20084;-63
2023/10/20 03:18:26;;;;;;;84.55;14.70;;;30.10;39.30;;;;;;5040078;28;20168;-65
2023/10/20 03:20:52;;;;;;;94.60;15.65;;;30.10;39.30;;;;;;5033417;28;20049;-63
2023/10/20 03:23:23;;;;;;;77.40;14.02;;;30.10;39.90;;;;;;5034928;28;20112;-64
2023/10/20 03:25:50;;;;;;;82.80;16.67;;;30.10;39.90;;;;;;5037850;28;20055;-65
2023/10/20 03:28:16;;;;;;;117.70;18.45;;;30.00;40.20;;;;;;5040143;28;20098;-64
2023/10/20 03:30:43;;;;;;;86.65;17.75;;;30.00;40.10;;;;;;5036227;28;20550;-63
2023/10/20 03:33:12;;;;;;;92.80;17.33;;;29.90;40.50;;;;;;5033261;28;20185;-65
2023/10/20 03:35:39;;;;;;;97.07;17.95;;;29.80;40.70;;;;;;5040689;28;20539;-65
2023/10/20 03:38:07;;;;;;;97.75;21.20;;;29.80;40.90;;;;;;5037857;28;20052;-64
2023/10/20 03:40:37;;;;;;;114.95;23.20;;;29.70;40.40;;;;;;5035249;28;20056;-64
2023/10/20 03:43:05;;;;;;;105.15;22.60;;;29.70;40.80;;;;;;5033482;28;20059;-64
2023/10/20 03:45:39;;;;;;;131.38;22.35;;;29.60;41.40;;;;;;5037296;28;20063;-65
2023/10/20 03:48:08;;;;;;;108.00;23.35;;;29.60;41.00;;;;;;5036289;28;20061;-65
2023/10/20 03:50:38;;;;;;;89.05;21.27;;;29.60;42.30;;;;;;5042076;28;20091;-66
2023/10/20 03:53:06;;;;;;;118.60;23.30;;;29.50;41.40;;;;;;5037308;28;20136;-65
2023/10/20 03:55:33;;;;;;;113.90;22.42;;;29.40;41.20;;;;;;5039483;28;20082;-66
2023/10/20 03:58:01;;;;;;;95.50;22.25;;;29.40;41.10;;;;;;5039708;28;20064;-64
2023/10/20 04:00:31;;;;;;;123.72;24.58;;;29.40;41.00;;;;;;5037793;28;20060;-66
2023/10/20 04:02:57;;;;;;;112.32;22.20;;;29.40;41.40;;;;;;5035905;28;20072;-66
2023/10/20 04:05:25;;;;;;;130.50;24.45;;;29.30;42.30;;;;;;5035863;28;20056;-65
2023/10/20 04:07:52;;;;;;;97.07;22.85;;;29.20;41.60;;;;;;5033490;28;20061;-64
2023/10/20 04:10:19;;;;;;;107.03;24.65;;;29.20;42.10;;;;;;5032239;28;20367;-65
2023/10/20 04:12:47;;;;;;;147.10;24.60;;;29.10;42.60;;;;;;5031557;28;20057;-65
2023/10/20 04:15:19;;;;;;;96.18;21.58;;;29.10;42.30;;;;;;5027574;28;20067;-67
2023/10/20 04:17:51;;;;;;;118.57;24.23;;;29.10;41.90;;;;;;5034361;28;20065;-65
2023/10/20 04:20:23;;;;;;;111.20;21.33;;;29.00;42.10;;;;;;5039686;28;20147;-64
2023/10/20 04:22:50;;;;;;;85.00;20.33;;;28.90;41.90;;;;;;5036410;28;20429;-64
2023/10/20 04:25:21;;;;;;;94.50;20.10;;;29.00;41.70;;;;;;5038363;28;20071;-65
2023/10/20 04:27:57;;;;;;;95.30;20.80;;;28.90;41.80;;;;;;5036804;28;20059;-65
2023/10/20 05:08:04;;;;;;;103.75;20.08;;;28.20;43.10;;;;;;5034268;28;20111;-65
2023/10/20 05:10:31;;;;;;;100.43;21.33;;;28.10;43.10;;;;;;5030252;28;20147;-64
2023/10/20 05:12:58;;;;;;;112.03;21.58;;;28.10;44.20;;;;;;5031391;28;20157;-66
2023/10/20 05:15:25;;;;;;;106.03;23.30;;;28.10;42.90;;;;;;5032935;28;20419;-66
2023/10/20 05:17:52;;;;;;;105.63;22.58;;;28.10;41.80;;;;;;5029222;28;20081;-64
2023/10/20 05:20:22;;;;;;;83.90;20.83;;;28.20;41.00;;;;;;5029756;28;20153;-65
2023/10/20 05:22:49;;;;;;;89.43;19.50;;;28.20;40.60;;;;;;5028913;28;20068;-64
2023/10/20 05:25:16;;;;;;;86.50;16.83;;;28.20;40.60;;;;;;5028253;28;20084;-64
2023/10/20 05:27:43;;;;;;;73.63;16.00;;;28.20;40.50;;;;;;5029178;28;20089;-64
2023/10/20 05:30:10;;;;;;;68.03;12.85;;;28.20;40.50;;;;;;5024791;28;20077;-65
2023/10/20 05:32:38;;;;;;;54.53;11.75;;;28.20;40.60;;;;;;5026860;28;20060;-66
2023/10/20 05:35:08;;;;;;;57.83;10.32;;;28.20;40.90;;;;;;5021893;28;20084;-64
2023/10/20 05:37:35;;;;;;;36.95;9.05;;;28.20;41.30;;;;;;5029213;28;20132;-65
2023/10/20 05:40:03;;;;;;;52.33;8.30;;;28.20;41.70;;;;;;5024960;28;20078;-65
2023/10/20 05:42:31;;;;;;;44.22;7.68;;;28.10;42.00;;;;;;5027134;28;20081;-65
2023/10/20 05:45:09;;;;;;;38.03;7.38;;;28.10;42.50;;;;;;5028411;28;20604;-64
2023/10/20 05:47:39;;;;;;;36.47;6.53;;;28.10;42.50;;;;;;5029134;28;20111;-65
2023/10/20 05:50:06;;;;;;;43.10;6.38;;;28.00;42.40;;;;;;5025326;28;20069;-63
2023/10/20 05:52:35;;;;;;;42.10;5.90;;;28.00;42.90;;;;;;5027978;28;20220;-65
2023/10/20 05:55:05;;;;;;;52.92;22.27;;;27.90;42.80;;;;;;5031781;28;20069;-64
2023/10/20 05:57:31;;;;;;;67.03;22.42;;;27.90;43.10;;;;;;5028082;28;20071;-66
2023/10/20 06:00:03;;;;;;;59.15;21.05;;;27.90;43.00;;;;;;5031158;28;20627;-66
2023/10/20 06:02:31;;;;;;;50.40;21.00;;;27.90;43.20;;;;;;5027667;28;20132;-64
2023/10/20 06:04:58;;;;;;;42.42;18.98;;;27.90;42.90;;;;;;5030734;28;20134;-65
2023/10/20 06:07:24;;;;;;;34.40;4.38;;;27.90;42.40;;;;;;5030778;28;20069;-64
2023/10/20 06:09:51;;;;;;;23.73;4.30;;;27.90;42.50;;;;;;5034276;28;20077;-64
2023/10/20 06:12:17;;;;;;;21.40;3.83;;;27.90;42.40;;;;;;5025013;28;20507;-63
2023/10/20 06:14:46;;;;;;;26.42;3.72;;;27.80;42.30;;;;;;5029038;28;20127;-65
2023/10/20 06:17:17;;;;;;;15.43;3.35;;;27.80;42.50;;;;;;5032334;28;20069;-65
2023/10/20 06:19:46;;;;;;;22.83;4.03;;;27.80;42.60;;;;;;5031289;28;20057;-63
2023/10/20 06:22:13;;;;;;;28.05;4.00;;;27.70;42.10;;;;;;5027873;28;20396;-65
2023/10/20 06:24:39;;;;;;;26.13;4.22;;;27.70;42.50;;;;;;5031746;28;20063;-64
2023/10/20 06:27:06;;;;;;;24.38;3.63;;;27.70;43.10;;;;;;5032103;28;20139;-64
2023/10/20 06:32:25;;;;;;;22.55;3.72;;;27.60;42.60;;;;;;5033881;28;20069;-65
2023/10/20 06:34:49;;;;;;;28.38;3.88;;;27.60;42.60;;;;;;5031772;28;20122;-64
2023/10/20 06:37:29;;;;;;;26.27;3.83;;;27.50;42.50;;;;;;5033044;28;20426;-64
2023/10/20 06:39:56;;;;;;;32.63;3.80;;;27.40;42.50;;;;;;5039444;28;20071;-68
2023/10/20 06:42:24;;;;;;;26.52;3.78;;;27.40;42.90;;;;;;5031819;28;20433;-65
2023/10/20 06:44:51;;;;;;;16.13;3.40;;;27.40;42.80;;;;;;5030384;28;20100;-66
2023/10/20 06:47:20;;;;;;;19.65;3.83;;;27.40;43.10;;;;;;5033517;28;20456;-66
2023/10/20 06:49:47;;;;;;;20.75;3.60;;;27.40;42.70;;;;;;5038212;28;20101;-65
2023/10/20 06:52:19;;;;;;;17.20;3.70;;;27.40;42.30;;;;;;5032931;28;20086;-64
2023/10/20 06:54:48;;;;;;;15.00;3.65;;;27.30;42.40;;;;;;5031692;28;20119;-67
2023/10/20 06:57:16;;;;;;;14.40;3.03;;;27.30;41.80;;;;;;5034321;28;20082;-67
2023/10/20 06:59:42;;;;;;;17.85;3.10;;;27.30;41.10;;;;;;5038544;28;20069;-66
2023/10/20 07:02:09;;;;;;;20.98;3.53;;;27.20;41.40;;;;;;5036399;28;20540;-65
2023/10/20 07:04:36;;;;;;;11.75;3.03;;;27.20;41.90;;;;;;5032955;28;20068;-64
2023/10/20 07:07:09;;;;;;;14.18;3.05;;;27.20;41.00;;;;;;5037255;28;20400;-65
2023/10/20 07:09:40;;;;;;;18.85;3.00;;;27.10;40.60;;;;;;5030789;28;20082;-64
2023/10/20 07:12:15;;;;;;;15.00;3.05;;;27.10;40.20;;;;;;5030512;28;20071;-64
2023/10/20 07:14:43;;;;;;;14.38;3.58;;;27.00;40.30;;;;;;5032110;28;20079;-64
2023/10/20 07:17:13;;;;;;;10.70;2.70;;;27.00;40.40;;;;;;5031027;28;20086;-69
2023/10/20 07:19:43;;;;;;;17.65;3.13;;;27.00;41.60;;;;;;5030786;28;20188;-67
2023/10/20 07:22:12;;;;;;;14.88;2.90;;;27.00;41.30;;;;;;5032420;28;20074;-66
2023/10/20 07:24:48;;;;;;;14.82;3.40;;;26.90;41.70;;;;;;5035970;28;20071;-65
2023/10/20 07:27:21;;;;;;;11.95;3.42;;;26.90;42.30;;;;;;5034109;28;20079;-64
2023/10/20 07:29:51;;;;;;;14.88;2.85;;;26.80;41.90;;;;;;5030411;28;20074;-65
2023/10/20 07:32:18;;;;;;;15.10;2.50;;;26.80;41.20;;;;;;5033078;28;20552;-64
2023/10/20 07:34:51;;;;;;;15.40;2.60;;;26.80;41.40;;;;;;5034197;28;20236;-65
2023/10/20 07:37:18;;;;;;;18.90;3.53;;;26.80;41.10;;;;;;5029401;28;20193;-63
2023/10/20 07:39:45;;;;;;;19.95;3.58;;;26.80;40.80;;;;;;5034622;28;20080;-64
2023/10/20 07:42:20;;;;;;;22.52;3.80;;;26.70;40.50;;;;;;5032224;28;20067;-64
2023/10/20 07:44:47;;;;;;;17.40;3.47;;;26.70;41.30;;;;;;5033634;28;20070;-64
2023/10/20 07:47:14;;;;;;;21.40;3.10;;;26.60;42.00;;;;;;5033000;28;20168;-66
2023/10/20 07:49:41;;;;;;;24.30;3.67;;;26.50;42.60;;;;;;5026793;28;20126;-68
2023/10/20 07:52:11;;;;;;;18.23;3.05;;;26.50;43.00;;;;;;5038281;28;20073;-66
2023/10/20 07:54:40;;;;;;;18.65;3.30;;;26.40;43.20;;;;;;5035190;28;20079;-66
2023/10/20 07:57:07;;;;;;;17.00;3.40;;;26.40;43.70;;;;;;5030516;28;20095;-68
2023/10/20 07:59:34;;;;;;;21.60;3.22;;;26.30;45.00;;;;;;5030715;28;20548;-64
2023/10/20 08:02:01;;;;;;;17.02;3.30;;;26.30;45.00;;;;;;5030551;28;20072;-66
2023/10/20 08:04:31;;;;;;;18.35;3.95;;;26.20;44.60;;;;;;5036924;28;20097;-64
2023/10/20 08:07:03;;;;;;;24.17;3.50;;;26.20;44.80;;;;;;5031575;28;20568;-67
2023/10/20 08:09:29;;;;;;;18.90;4.15;;;26.20;44.50;;;;;;5033753;28;20103;-64
2023/10/20 08:11:59;;;;;;;16.92;3.47;;;26.10;44.50;;;;;;5034056;28;20100;-63
2023/10/20 08:14:26;;;;;;;13.63;3.70;;;26.10;43.70;;;;;;5036861;28;20105;-65
2023/10/20 08:16:53;;;;;;;14.43;3.10;;;26.10;43.70;;;;;;5035862;28;20455;-67
2023/10/20 08:19:20;;;;;;;13.95;3.25;;;26.10;43.00;;;;;;5031417;28;20150;-66
2023/10/20 08:21:47;;;;;;;16.63;3.33;;;26.10;42.80;;;;;;5031763;28;20112;-66
2023/10/20 08:24:14;;;;;;;11.45;3.80;;;26.10;42.30;;;;;;5033508;28;20094;-64
2023/10/20 08:26:46;;;;;;;13.23;3.40;;;26.10;41.90;;;;;;5030583;28;20070;-68
2023/10/20 08:29:16;;;;;;;12.63;2.92;;;26.20;41.30;;;;;;5029636;28;20109;-66
2023/10/20 08:31:46;;;;;;;24.17;3.50;;;26.20;41.20;;;;;;5030884;28;20211;-64
2023/10/20 08:34:13;;;;;;;13.57;3.42;;;26.20;41.40;;;;;;5034267;28;20074;-65
2023/10/20 08:36:39;;;;;;;13.25;3.08;;;26.30;41.60;;;;;;5032181;28;20108;-66
2023/10/20 08:39:19;;;;;;;9.98;3.00;;;26.20;41.10;;;;;;5036442;28;20137;-66
2023/10/20 08:41:46;;;;;;;14.32;3.47;;;26.20;41.70;;;;;;5031183;28;20180;-64
2023/10/20 08:44:14;;;;;;;15.63;3.15;;;26.20;41.30;;;;;;5030188;28;20114;-65
2023/10/20 08:46:42;;;;;;;15.30;3.13;;;26.20;41.50;;;;;;5034231;28;20543;-63
2023/10/20 08:49:15;;;;;;;10.60;3.45;;;26.20;41.30;;;;;;5040050;28;20071;-63
2023/10/20 08:51:42;;;;;;;16.08;3.30;;;26.10;40.90;;;;;;5039639;28;20497;-66
2023/10/20 08:54:09;;;;;;;18.20;3.83;;;26.10;41.60;;;;;;5041152;28;20499;-65
2023/10/20 08:56:38;;;;;;;14.20;3.22;;;26.00;41.20;;;;;;5040754;28;20094;-65
2023/10/20 08:59:14;;;;;;;11.30;2.90;;;26.00;41.70;;;;;;5040246;28;20072;-64
2023/10/20 09:01:42;;;;;;;19.73;3.70;;;26.00;41.40;;;;;;5033898;28;20079;-66
2023/10/20 09:04:19;;;;;;;17.50;3.50;;;26.00;42.40;;;;;;5035220;28;20076;-64
2023/10/20 09:06:49;;;;;;;11.88;3.20;;;25.90;41.80;;;;;;5036564;28;20378;-65
2023/10/20 09:09:16;;;;;;;12.75;3.50;;;25.90;41.40;;;;;;5034828;28;20439;-64
2023/10/20 09:11:44;;;;;;;13.52;3.25;;;25.90;41.60;;;;;;5037785;28;20089;-65
2023/10/20 09:14:17;;;;;;;15.57;3.35;;;25.80;41.70;;;;;;5033398;28;20559;-65
2023/10/20 09:16:45;;;;;;;12.80;3.55;;;25.80;43.10;;;;;;5031322;28;20099;-66
2023/10/20 09:19:12;;;;;;;13.75;3.22;;;25.70;42.50;;;;;;5033819;28;20066;-64
2023/10/20 09:21:39;;;;;;;14.75;3.45;;;25.70;42.60;;;;;;5031298;28;20076;-64
2023/10/20 09:24:08;;;;;;;14.75;3.00;;;25.70;41.90;;;;;;5030194;28;20539;-66
2023/10/20 09:26:37;;;;;;;14.77;3.20;;;25.80;41.60;;;;;;5036989;28;20147;-64
2023/10/20 09:29:05;;;;;;;11.98;3.15;;;25.80;41.20;;;;;;5032427;28;20076;-64
2023/10/20 09:31:32;;;;;;;11.10;3.28;;;25.90;41.20;;;;;;5030655;28;20175;-64
2023/10/20 09:34:00;;;;;;;15.90;3.80;;;26.00;41.00;;;;;;5036539;28;20549;-65
2023/10/20 09:36:32;;;;;;;10.05;3.17;;;26.00;41.30;;;;;;5029133;28;20132;-65
2023/10/20 09:39:00;;;;;;;13.93;3.10;;;26.00;40.90;;;;;;5030155;28;20069;-63
2023/10/20 09:41:29;;;;;;;8.77;3.00;;;26.10;40.90;;;;;;5035443;28;20085;-64
2023/10/20 09:44:06;;;;;;;10.20;2.70;;;26.10;41.00;;;;;;5039582;28;20068;-65
2023/10/20 09:46:48;;;;;;;13.90;2.67;;;26.10;40.80;;;;;;5039202;28;20088;-66
2023/10/20 09:49:16;;;;;;;11.88;2.50;;;26.10;40.70;;;;;;5037784;28;20083;-63
2023/10/20 09:51:49;;;;;;;9.40;2.63;;;26.20;40.80;;;;;;5031664;28;20124;-63
2023/10/20 09:54:19;;;;;;;11.80;2.83;;;26.20;40.80;;;;;;5037816;28;20084;-64
2023/10/20 09:56:46;;;;;;;10.45;2.80;;;26.20;40.70;;;;;;5033576;28;20090;-66
2023/10/20 09:59:27;;;;;;;8.40;2.38;;;26.20;40.80;;;;;;5037834;28;20079;-65
2023/10/20 10:01:55;;;;;;;9.75;2.80;;;26.20;40.70;;;;;;5038893;28;20079;-64
2023/10/20 10:04:37;;;;;;;10.88;2.83;;;26.20;40.80;;;;;;5039288;28;20074;-65
2023/10/20 10:07:04;;;;;;;10.50;2.42;;;26.10;40.50;;;;;;5036990;28;20075;-65
2023/10/20 10:09:40;;;;;;;12.02;2.90;;;26.20;40.80;;;;;;5030094;28;20069;-65
2023/10/20 10:12:14;;;;;;;10.80;2.95;;;26.10;40.50;;;;;;5037076;28;20548;-63
2023/10/20 10:14:41;;;;;;;15.02;3.00;;;26.10;40.40;;;;;;5032251;28;20115;-67
2023/10/20 10:17:10;;;;;;;18.35;3.28;;;26.10;40.40;;;;;;5037722;28;20428;-67
2023/10/20 10:19:51;;;;;;;14.45;2.90;;;26.00;40.50;;;;;;5039077;28;20074;-65
2023/10/20 10:22:22;;;;;;;12.43;2.95;;;26.00;40.90;;;;;;5038731;28;20519;-66
2023/10/20 10:24:54;;;;;;;9.63;3.05;;;26.00;40.80;;;;;;5042430;28;20105;-64
2023/10/20 10:27:26;;;;;;;10.00;2.80;;;25.90;41.10;;;;;;5041799;28;20482;-63
2023/10/20 10:30:00;;;;;;;10.85;2.78;;;25.90;41.40;;;;;;5037635;28;20159;-65
2023/10/20 10:32:33;;;;;;;8.65;2.92;;;25.90;41.40;;;;;;5040636;28;20084;-62
2023/10/20 10:35:02;;;;;;;12.07;2.60;;;25.80;40.90;;;;;;5028963;28;20162;-63
2023/10/20 10:37:44;;;;;;;13.43;2.92;;;25.80;41.00;;;;;;5037234;28;20095;-67
2023/10/20 10:40:22;;;;;;;15.98;3.22;;;25.70;41.90;;;;;;5035232;28;20081;-64
2023/10/20 10:42:53;;;;;;;9.18;2.90;;;25.70;42.10;;;;;;5041999;28;20101;-65
2023/10/20 10:45:27;;;;;;;13.70;3.40;;;25.60;41.80;;;;;;5031403;28;20111;-63
2023/10/20 10:48:15;;;;;;;8.23;3.20;;;25.50;42.00;;;;;;5039219;28;20082;-63
2023/10/20 10:50:48;;;;;;;10.98;2.92;;;25.40;43.10;;;;;;5033627;28;20165;-64
2023/10/20 10:53:15;;;;;;;13.90;3.25;;;25.40;43.90;;;;;;5032532;28;20479;-64
2023/10/20 10:55:43;;;;;;;12.85;3.33;;;25.40;43.30;;;;;;5031288;28;20094;-65
2023/10/20 10:58:14;;;;;;;7.35;2.92;;;25.30;43.10;;;;;;5038136;28;20091;-64
2023/10/20 11:00:43;;;;;;;11.30;3.20;;;25.20;43.70;;;;;;5035764;28;20079;-63
2023/10/20 11:03:11;;;;;;;12.43;3.70;;;25.20;44.20;;;;;;5034627;28;20075;-64
2023/10/20 11:05:39;;;;;;;11.70;3.63;;;25.20;43.80;;;;;;5039703;28;20157;-65
2023/10/20 11:08:12;;;;;;;13.13;3.65;;;25.20;43.30;;;;;;5035703;28;20091;-64
2023/10/20 11:10:45;;;;;;;17.80;3.60;;;25.20;44.00;;;;;;5035425;28;20075;-64
2023/10/20 11:13:16;;;;;;;14.02;3.90;;;25.10;44.00;;;;;;5040932;28;20165;-63
2023/10/20 11:15:43;;;;;;;15.15;3.90;;;25.10;43.90;;;;;;5039476;28;20481;-65
2023/10/20 11:18:14;;;;;;;16.58;4.10;;;25.00;44.30;;;;;;5036734;28;20078;-65
2023/10/20 11:20:43;;;;;;;25.95;4.57;;;24.90;44.90;;;;;;5028834;28;20084;-64
2023/10/20 11:23:12;;;;;;;22.55;4.05;;;24.80;44.50;;;;;;5036360;28;20073;-66
2023/10/20 11:25:42;;;;;;;15.52;4.13;;;24.80;44.50;;;;;;5035534;28;20609;-65
2023/10/20 11:28:12;;;;;;;20.17;4.03;;;24.70;44.70;;;;;;5028637;28;20608;-64
2023/10/20 11:30:42;;;;;;;14.48;4.10;;;24.70;45.20;;;;;;5033861;28;20102;-65
2023/10/20 11:33:11;;;;;;;17.45;3.97;;;24.70;45.50;;;;;;5031147;28;20074;-68
2023/10/20 11:35:42;;;;;;;18.17;4.18;;;24.60;46.00;;;;;;5031186;28;20138;-68
2023/10/20 11:38:15;;;;;;;14.85;3.95;;;24.60;46.00;;;;;;5029554;28;20213;-66
2023/10/20 11:40:42;;;;;;;11.77;4.10;;;24.50;46.10;;;;;;5028336;28;20498;-65
2023/10/20 11:43:09;;;;;;;14.43;3.45;;;24.40;46.20;;;;;;5029591;28;20080;-65
2023/10/20 11:45:36;;;;;;;10.55;3.42;;;24.40;47.20;;;;;;5031535;28;20089;-65
2023/10/20 11:48:05;;;;;;;15.27;3.85;;;24.40;46.90;;;;;;5032669;28;20087;-64
2023/10/20 11:50:32;;;;;;;11.15;3.50;;;24.30;46.80;;;;;;5030572;28;20086;-63
2023/10/20 11:52:59;;;;;;;11.27;3.40;;;24.30;46.80;;;;;;5031007;28;21184;-64
2023/10/20 11:55:26;;;;;;;18.25;3.90;;;24.30;47.00;;;;;;5026331;28;20077;-63
2023/10/20 11:57:55;;;;;;;12.38;4.03;;;24.30;47.30;;;;;;5030036;28;20145;-64
2023/10/20 12:00:25;;;;;;;12.27;3.72;;;24.20;47.40;;;;;;5050719;28;20118;-64
2023/10/20 12:02:57;;;;;;;18.30;4.20;;;24.20;47.20;;;;;;5038277;28;20126;-65
2023/10/20 12:05:26;;;;;;;16.42;3.90;;;24.10;47.70;;;;;;5028279;28;20082;-64
2023/10/20 12:07:53;;;;;;;20.95;4.53;;;24.10;47.50;;;;;;5031694;28;20099;-65
2023/10/20 12:10:23;;;;;;;14.90;4.28;;;24.00;47.90;;;;;;5034523;28;20112;-66
2023/10/20 12:12:53;;;;;;;14.10;4.30;;;23.90;48.30;;;;;;5034971;28;20539;-65
2023/10/20 12:15:19;;;;;;;25.63;4.75;;;23.80;48.40;;;;;;5031471;28;20264;-66
2023/10/20 12:17:46;;;;;;;17.15;5.20;;;23.80;48.70;;;;;;5036063;28;20448;-65
2023/10/20 12:20:13;;;;;;;21.55;5.45;;;23.80;49.50;;;;;;5031952;28;20176;-65
2023/10/20 12:22:40;;;;;;;27.65;6.43;;;23.80;49.70;;;;;;5032943;28;20570;-66
2023/10/20 12:25:07;;;;;;;27.92;6.65;;;23.80;49.40;;;;;;5036989;28;20097;-66
2023/10/20 12:27:37;;;;;;;29.85;6.43;;;23.80;49.10;;;;;;5033353;28;20165;-64
2023/10/20 12:30:13;;;;;;;33.50;7.22;;;23.80;48.60;;;;;;5031161;28;20082;-66
2023/10/20 12:32:46;;;;;;;40.67;6.23;;;23.80;48.60;;;;;;5035568;28;20495;-65
2023/10/20 12:35:16;;;;;;;33.72;6.60;;;23.80;48.90;;;;;;5035420;28;20104;-65
2023/10/20 12:37:43;;;;;;;29.42;6.32;;;23.80;48.90;;;;;;5034359;28;20205;-64
2023/10/20 12:40:21;;;;;;;28.13;7.20;;;23.80;49.20;;;;;;5037316;28;20132;-65
2023/10/20 12:42:49;;;;;;;27.42;7.07;;;23.80;49.40;;;;;;5032884;28;20141;-65
2023/10/20 12:45:16;;;;;;;31.52;7.53;;;23.70;49.80;;;;;;5034107;28;20159;-65
2023/10/20 12:47:43;;;;;;;25.30;7.70;;;23.70;50.20;;;;;;5031930;28;20076;-66
2023/10/20 12:50:10;;;;;;;28.98;8.38;;;23.60;50.30;;;;;;5028915;28;20087;-64
2023/10/20 12:52:37;;;;;;;27.88;7.72;;;23.60;50.60;;;;;;5034598;28;20084;-63
2023/10/20 12:55:05;;;;;;;40.08;9.57;;;23.50;50.80;;;;;;5035848;28;20169;-64
2023/10/20 12:57:33;;;;;;;33.75;9.95;;;23.50;50.80;;;;;;5033230;28;20122;-62
2023/10/20 13:00:00;;;;;;;48.28;9.80;;;23.40;51.10;;;;;;5032729;28;20079;-65
2023/10/20 13:02:26;;;;;;;62.00;10.30;;;23.40;51.60;;;;;;5035223;28;20093;-64
2023/10/20 13:04:57;;;;;;;50.10;10.77;;;23.40;51.80;;;;;;5031707;28;20134;-64
2023/10/20 13:07:27;;;;;;;40.95;10.98;;;23.40;52.10;;;;;;5035215;28;20094;-64
2023/10/20 13:09:56;;;;;;;49.13;12.88;;;23.40;52.10;;;;;;5034067;28;20115;-65
2023/10/20 13:12:23;;;;;;;44.28;11.57;;;23.40;52.10;;;;;;5035214;28;20079;-65
2023/10/20 13:14:50;;;;;;;53.28;11.52;;;23.40;52.00;;;;;;5033287;28;20079;-63
2023/10/20 13:17:19;;;;;;;49.38;12.32;;;23.40;52.30;;;;;;5038514;28;20169;-64
2023/10/20 13:19:55;;;;;;;65.22;13.57;;;23.50;52.20;;;;;;5041066;28;20076;-64
2023/10/20 13:22:24;;;;;;;;;;;23.40;52.30;;;;;;5034712;28;20083;-64
2023/10/20 13:24:52;;;;;;;72.25;13.20;;;23.40;52.50;;;;;;5032030;28;19974;-65